sensor_id;sensor_type;location;lat;lon;timestamp;pressure;altitude;pressure_sealevel;temperature;humidity
36304;BME280;22335;49.800;8.596;2023-03-18T00:04:25;100012.72;;;17.21;43.35
36304;BME280;22335;49.800;8.596;2023-03-18T00:11:11;100017.44;;;17.21;43.67
36304;BME280;22335;49.800;8.596;2023-03-18T00:17:56;100022.97;;;17.21;44.01
36304;BME280;22335;49.800;8.596;2023-03-18T00:24:43;100022.09;;;17.08;44.51
36304;BME280;22335;49.800;8.596;2023-03-18T00:31:27;100037.19;;;17.11;44.47
36304;BME280;22335;49.800;8.596;2023-03-18T00:38:12;100041.66;;;17.03;44.44
36304;BME280;22335;49.800;8.596;2023-03-18T00:45:03;100042.13;;;16.84;45.11
36304;BME280;22335;49.800;8.596;2023-03-18T00:51:48;100038.38;;;16.89;44.71
36304;BME280;22335;49.800;8.596;2023-03-18T00:58:32;100043.22;;;16.92;44.80
36304;BME280;22335;49.800;8.596;2023-03-18T01:05:20;100054.94;;;16.89;44.78
36304;BME280;22335;49.800;8.596;2023-03-18T01:12:04;100066.94;;;16.93;44.82
36304;BME280;22335;49.800;8.596;2023-03-18T01:18:49;100048.38;;;16.93;45.06
36304;BME280;22335;49.800;8.596;2023-03-18T01:25:35;100057.22;;;16.87;45.16
36304;BME280;22335;49.800;8.596;2023-03-18T01:32:19;100046.31;;;16.90;45.18
36304;BME280;22335;49.800;8.596;2023-03-18T01:39:02;100049.69;;;16.96;45.18
36304;BME280;22335;49.800;8.596;2023-03-18T01:45:50;100059.78;;;16.92;45.36
36304;BME280;22335;49.800;8.596;2023-03-18T01:52:35;100055.75;;;16.89;45.44
36304;BME280;22335;49.800;8.596;2023-03-18T01:59:21;100056.97;;;16.79;45.57
36304;BME280;22335;49.800;8.596;2023-03-18T02:06:09;100042.34;;;16.79;46.00
36304;BME280;22335;49.800;8.596;2023-03-18T02:12:58;100023.72;;;16.67;45.96
36304;BME280;22335;49.800;8.596;2023-03-18T02:20:03;100012.53;;;16.64;45.97
36304;BME280;22335;49.800;8.596;2023-03-18T02:26:57;100032.25;;;16.74;45.95
36304;BME280;22335;49.800;8.596;2023-03-18T02:33:53;100039.22;;;16.80;45.88
36304;BME280;22335;49.800;8.596;2023-03-18T02:40:40;99983.63;;;16.40;46.27
36304;BME280;22335;49.800;8.596;2023-03-18T02:47:30;100043.16;;;16.79;45.90
36304;BME280;22335;49.800;8.596;2023-03-18T02:54:19;100056.97;;;16.79;45.93
36304;BME280;22335;49.800;8.596;2023-03-18T03:01:04;100037.16;;;16.77;46.02
36304;BME280;22335;49.800;8.596;2023-03-18T03:07:49;100046.97;;;16.87;46.09
36304;BME280;22335;49.800;8.596;2023-03-18T03:14:34;100046.03;;;16.83;46.35
36304;BME280;22335;49.800;8.596;2023-03-18T03:21:18;100058.56;;;16.80;46.42
36304;BME280;22335;49.800;8.596;2023-03-18T03:28:03;100064.56;;;16.82;46.38
36304;BME280;22335;49.800;8.596;2023-03-18T03:34:50;100037.44;;;16.55;46.43
36304;BME280;22335;49.800;8.596;2023-03-18T03:41:33;100069.97;;;16.79;46.53
36304;BME280;22335;49.800;8.596;2023-03-18T04:03:22;100078.69;;;16.60;47.63
36304;BME280;22335;49.800;8.596;2023-03-18T04:10:07;100068.84;;;16.12;48.59
36304;BME280;22335;49.800;8.596;2023-03-18T04:16:56;100079.41;;;16.10;48.40
36304;BME280;22335;49.800;8.596;2023-03-18T04:23:43;100070.94;;;16.15;48.38
36304;BME280;22335;49.800;8.596;2023-03-18T04:30:26;100059.72;;;16.20;48.21
36304;BME280;22335;49.800;8.596;2023-03-18T04:37:15;100075.06;;;16.39;47.91
36304;BME280;22335;49.800;8.596;2023-03-18T04:44:04;100080.41;;;16.35;47.96
36304;BME280;22335;49.800;8.596;2023-03-18T04:50:55;100093.53;;;16.38;47.85
36304;BME280;22335;49.800;8.596;2023-03-18T04:57:42;100085.78;;;16.31;47.74
36304;BME280;22335;49.800;8.596;2023-03-18T05:04:30;100071.19;;;16.01;47.86
36304;BME280;22335;49.800;8.596;2023-03-18T05:11:14;100058.91;;;15.73;47.60
36304;BME280;22335;49.800;8.596;2023-03-18T05:17:59;100098.94;;;15.96;47.20
36304;BME280;22335;49.800;8.596;2023-03-18T05:24:45;100089.84;;;15.96;46.83
36304;BME280;22335;49.800;8.596;2023-03-18T05:31:29;100106.53;;;15.99;46.80
36304;BME280;22335;49.800;8.596;2023-03-18T05:38:14;100105.41;;;15.91;47.31
36304;BME280;22335;49.800;8.596;2023-03-18T05:45:00;100048.25;;;15.45;47.57
36304;BME280;22335;49.800;8.596;2023-03-18T05:51:46;100107.88;;;15.84;47.61
36304;BME280;22335;49.800;8.596;2023-03-18T05:58:40;100109.31;;;15.90;47.62
36304;BME280;22335;49.800;8.596;2023-03-18T06:05:43;100121.16;;;15.91;47.52
36304;BME280;22335;49.800;8.596;2023-03-18T06:12:28;100118.91;;;15.93;47.48
36304;BME280;22335;49.800;8.596;2023-03-18T06:19:12;100083.41;;;15.57;47.30
36304;BME280;22335;49.800;8.596;2023-03-18T06:25:57;100121.50;;;15.63;47.97
36304;BME280;22335;49.800;8.596;2023-03-18T06:32:46;100059.97;;;15.25;47.96
36304;BME280;22335;49.800;8.596;2023-03-18T06:39:31;100076.00;;;15.40;47.84
36304;BME280;22335;49.800;8.596;2023-03-18T06:46:19;100126.75;;;15.74;47.50
36304;BME280;22335;49.800;8.596;2023-03-18T06:53:04;100147.63;;;15.66;47.19
36304;BME280;22335;49.800;8.596;2023-03-18T06:59:48;100143.41;;;15.60;47.45
36304;BME280;22335;49.800;8.596;2023-03-18T07:06:34;100150.25;;;15.71;47.64
36304;BME280;22335;49.800;8.596;2023-03-18T07:13:18;100151.34;;;15.87;47.47
36304;BME280;22335;49.800;8.596;2023-03-18T07:20:02;100156.19;;;15.99;47.39
36304;BME280;22335;49.800;8.596;2023-03-18T07:26:51;100159.25;;;16.15;46.91
36304;BME280;22335;49.800;8.596;2023-03-18T07:33:35;100158.69;;;16.30;46.55
36304;BME280;22335;49.800;8.596;2023-03-18T07:40:18;100162.16;;;16.57;46.66
36304;BME280;22335;49.800;8.596;2023-03-18T07:47:03;100172.34;;;17.03;46.72
36304;BME280;22335;49.800;8.596;2023-03-18T07:53:47;100180.31;;;17.26;45.72
36304;BME280;22335;49.800;8.596;2023-03-18T08:00:32;100119.31;;;17.10;45.76
36304;BME280;22335;49.800;8.596;2023-03-18T08:07:17;100175.50;;;17.77;45.05
36304;BME280;22335;49.800;8.596;2023-03-18T08:14:00;100174.66;;;17.97;44.50
36304;BME280;22335;49.800;8.596;2023-03-18T08:20:44;100185.41;;;18.11;44.73
36304;BME280;22335;49.800;8.596;2023-03-18T08:27:30;100177.97;;;18.36;43.84
36304;BME280;22335;49.800;8.596;2023-03-18T08:34:13;100175.84;;;18.79;43.28
36304;BME280;22335;49.800;8.596;2023-03-18T08:40:57;100149.25;;;19.02;43.14
36304;BME280;22335;49.800;8.596;2023-03-18T08:47:42;100193.19;;;19.41;41.95
36304;BME280;22335;49.800;8.596;2023-03-18T08:54:25;100186.56;;;19.57;42.27
36304;BME280;22335;49.800;8.596;2023-03-18T09:01:09;100187.59;;;19.93;41.58
36304;BME280;22335;49.800;8.596;2023-03-18T09:07:54;100187.19;;;20.07;41.08
36304;BME280;22335;49.800;8.596;2023-03-18T09:14:38;100187.84;;;20.32;40.85
36304;BME280;22335;49.800;8.596;2023-03-18T09:21:22;100186.44;;;20.54;40.18
36304;BME280;22335;49.800;8.596;2023-03-18T09:28:07;100183.03;;;20.77;39.56
36304;BME280;22335;49.800;8.596;2023-03-18T09:34:52;100163.13;;;20.90;39.40
36304;BME280;22335;49.800;8.596;2023-03-18T09:41:41;100157.84;;;21.05;39.13
36304;BME280;22335;49.800;8.596;2023-03-18T09:48:43;100151.84;;;21.03;38.74
36304;BME280;22335;49.800;8.596;2023-03-18T09:55:36;100160.03;;;21.31;37.96
36304;BME280;22335;49.800;8.596;2023-03-18T10:02:30;100157.56;;;21.64;38.18
36304;BME280;22335;49.800;8.596;2023-03-18T10:09:24;100147.09;;;21.77;37.64
36304;BME280;22335;49.800;8.596;2023-03-18T10:16:16;100129.81;;;21.68;37.35
36304;BME280;22335;49.800;8.596;2023-03-18T10:23:12;100153.25;;;21.67;36.87
36304;BME280;22335;49.800;8.596;2023-03-18T10:30:20;100159.38;;;21.76;37.17
36304;BME280;22335;49.800;8.596;2023-03-18T10:37:18;100096.09;;;21.73;36.39
36304;BME280;22335;49.800;8.596;2023-03-18T10:44:17;100142.09;;;22.29;35.85
36304;BME280;22335;49.800;8.596;2023-03-18T10:51:09;100101.94;;;22.10;35.63
36304;BME280;22335;49.800;8.596;2023-03-18T10:57:57;100132.75;;;22.41;35.27
36304;BME280;22335;49.800;8.596;2023-03-18T11:04:48;100135.97;;;22.43;35.59
36304;BME280;22335;49.800;8.596;2023-03-18T11:11:38;100131.19;;;22.43;35.34
36304;BME280;22335;49.800;8.596;2023-03-18T11:18:25;100136.31;;;22.41;35.10
36304;BME280;22335;49.800;8.596;2023-03-18T11:25:12;100135.44;;;22.60;36.11
36304;BME280;22335;49.800;8.596;2023-03-18T11:32:00;100094.56;;;22.45;35.70
36304;BME280;22335;49.800;8.596;2023-03-18T11:38:55;100133.44;;;22.61;35.84
36304;BME280;22335;49.800;8.596;2023-03-18T11:45:46;100135.00;;;22.85;34.87
36304;BME280;22335;49.800;8.596;2023-03-18T11:52:37;100090.63;;;22.72;34.99
36304;BME280;22335;49.800;8.596;2023-03-18T11:59:37;100115.44;;;22.81;34.69
36304;BME280;22335;49.800;8.596;2023-03-18T12:06:32;100114.91;;;22.95;34.25
36304;BME280;22335;49.800;8.596;2023-03-18T12:13:34;100095.09;;;23.07;34.03
36304;BME280;22335;49.800;8.596;2023-03-18T12:20:46;100083.16;;;23.07;34.07
36304;BME280;22335;49.800;8.596;2023-03-18T12:27:39;100082.06;;;23.15;33.81
36304;BME280;22335;49.800;8.596;2023-03-18T12:34:41;100073.06;;;23.29;33.95
36304;BME280;22335;49.800;8.596;2023-03-18T12:41:41;100067.69;;;23.46;34.69
36304;BME280;22335;49.800;8.596;2023-03-18T12:48:34;100035.41;;;23.12;34.66
36304;BME280;22335;49.800;8.596;2023-03-18T12:55:29;100063.78;;;23.17;34.92
36304;BME280;22335;49.800;8.596;2023-03-18T13:02:29;100057.16;;;22.99;35.74
36304;BME280;22335;49.800;8.596;2023-03-18T13:09:24;100008.97;;;22.72;35.70
36304;BME280;22335;49.800;8.596;2023-03-18T13:16:14;100058.94;;;23.14;35.44
36304;BME280;22335;49.800;8.596;2023-03-18T13:23:15;100032.53;;;23.05;35.62
36304;BME280;22335;49.800;8.596;2023-03-18T13:30:17;100032.81;;;23.30;34.13
36304;BME280;22335;49.800;8.596;2023-03-18T13:37:23;100047.03;;;23.51;35.24
36304;BME280;22335;49.800;8.596;2023-03-18T13:44:35;100042.47;;;23.36;35.17
36304;BME280;22335;49.800;8.596;2023-03-18T13:51:42;100037.94;;;23.24;35.21
36304;BME280;22335;49.800;8.596;2023-03-18T13:58:43;100043.97;;;23.26;34.46
36304;BME280;22335;49.800;8.596;2023-03-18T14:05:38;100045.63;;;23.34;34.03
36304;BME280;22335;49.800;8.596;2023-03-18T14:12:37;100005.72;;;23.30;34.29
36304;BME280;22335;49.800;8.596;2023-03-18T14:19:25;100029.91;;;23.56;33.13
36304;BME280;22335;49.800;8.596;2023-03-18T14:26:19;100026.00;;;23.64;33.70
36304;BME280;22335;49.800;8.596;2023-03-18T14:33:29;100016.66;;;23.46;33.50
36304;BME280;22335;49.800;8.596;2023-03-18T14:40:18;100010.91;;;23.32;33.41
36304;BME280;22335;49.800;8.596;2023-03-18T14:47:05;100015.59;;;23.20;32.92
36304;BME280;22335;49.800;8.596;2023-03-18T14:54:17;100019.44;;;23.09;33.68
36304;BME280;22335;49.800;8.596;2023-03-18T15:01:07;99975.56;;;22.75;33.89
36304;BME280;22335;49.800;8.596;2023-03-18T15:07:53;100009.41;;;23.04;33.05
36304;BME280;22335;49.800;8.596;2023-03-18T15:14:40;99877.31;;;22.22;33.46
36304;BME280;22335;49.800;8.596;2023-03-18T15:21:27;100009.19;;;22.90;33.86
36304;BME280;22335;49.800;8.596;2023-03-18T15:28:17;100000.84;;;22.90;33.88
36304;BME280;22335;49.800;8.596;2023-03-18T15:35:14;100005.28;;;22.94;34.11
36304;BME280;22335;49.800;8.596;2023-03-18T15:42:01;99981.25;;;22.83;34.18
36304;BME280;22335;49.800;8.596;2023-03-18T15:48:49;100002.34;;;22.84;34.38
36304;BME280;22335;49.800;8.596;2023-03-18T15:55:46;100008.88;;;22.65;34.84
36304;BME280;22335;49.800;8.596;2023-03-18T16:02:32;99995.06;;;22.75;34.86
36304;BME280;22335;49.800;8.596;2023-03-18T16:09:18;99993.84;;;22.73;34.68
36304;BME280;22335;49.800;8.596;2023-03-18T16:16:03;99995.19;;;22.83;34.49
36304;BME280;22335;49.800;8.596;2023-03-18T16:22:48;99999.81;;;23.01;34.31
36304;BME280;22335;49.800;8.596;2023-03-18T16:29:34;99847.16;;;22.27;34.96
36304;BME280;22335;49.800;8.596;2023-03-18T16:36:25;99993.34;;;23.28;34.81
36304;BME280;22335;49.800;8.596;2023-03-18T16:43:18;99991.38;;;23.32;34.60
36304;BME280;22335;49.800;8.596;2023-03-18T16:50:09;99999.34;;;23.30;34.30
36304;BME280;22335;49.800;8.596;2023-03-18T16:57:00;100004.16;;;23.33;34.17
36304;BME280;22335;49.800;8.596;2023-03-18T17:03:46;100007.69;;;23.26;33.58
36304;BME280;22335;49.800;8.596;2023-03-18T17:10:29;100020.91;;;23.33;33.16
36304;BME280;22335;49.800;8.596;2023-03-18T17:17:19;99989.94;;;23.08;33.76
36304;BME280;22335;49.800;8.596;2023-03-18T17:24:08;100013.25;;;23.26;33.61
36304;BME280;22335;49.800;8.596;2023-03-18T17:30:52;100032.03;;;23.29;33.61
36304;BME280;22335;49.800;8.596;2023-03-18T17:37:35;100036.72;;;23.21;33.56
36304;BME280;22335;49.800;8.596;2023-03-18T17:44:23;100042.88;;;23.04;33.65
36304;BME280;22335;49.800;8.596;2023-03-18T17:51:13;99972.06;;;22.52;33.49
36304;BME280;22335;49.800;8.596;2023-03-18T17:57:58;100052.03;;;23.01;33.88
36304;BME280;22335;49.800;8.596;2023-03-18T18:04:45;100047.56;;;22.96;33.31
36304;BME280;22335;49.800;8.596;2023-03-18T18:11:30;100024.56;;;22.76;33.21
36304;BME280;22335;49.800;8.596;2023-03-18T18:18:14;100047.31;;;23.09;33.50
36304;BME280;22335;49.800;8.596;2023-03-18T18:25:13;100008.19;;;22.45;33.55
36304;BME280;22335;49.800;8.596;2023-03-18T18:31:58;100040.56;;;22.53;32.85
36304;BME280;22335;49.800;8.596;2023-03-18T18:38:42;100054.81;;;22.48;33.32
36304;BME280;22335;49.800;8.596;2023-03-18T18:45:27;100042.19;;;22.27;33.02
36304;BME280;22335;49.800;8.596;2023-03-18T18:52:12;100064.81;;;22.26;33.56
36304;BME280;22335;49.800;8.596;2023-03-18T18:58:55;100063.13;;;22.18;33.53
36304;BME280;22335;49.800;8.596;2023-03-18T19:05:41;100062.94;;;22.10;33.59
36304;BME280;22335;49.800;8.596;2023-03-18T19:12:26;100032.63;;;21.82;33.38
36304;BME280;22335;49.800;8.596;2023-03-18T19:19:11;100070.53;;;21.87;33.55
36304;BME280;22335;49.800;8.596;2023-03-18T19:25:58;100064.38;;;21.78;34.05
36304;BME280;22335;49.800;8.596;2023-03-18T19:32:42;100076.25;;;21.75;34.08
36304;BME280;22335;49.800;8.596;2023-03-18T19:39:26;100082.78;;;21.63;34.28
36304;BME280;22335;49.800;8.596;2023-03-18T19:46:14;100080.03;;;21.44;34.05
36304;BME280;22335;49.800;8.596;2023-03-18T19:52:59;100077.66;;;21.26;34.24
36304;BME280;22335;49.800;8.596;2023-03-18T19:59:44;100089.44;;;21.00;34.63
36304;BME280;22335;49.800;8.596;2023-03-18T20:06:30;100089.25;;;20.73;34.95
36304;BME280;22335;49.800;8.596;2023-03-18T20:13:15;100106.84;;;20.62;35.07
36304;BME280;22335;49.800;8.596;2023-03-18T20:19:59;100109.78;;;20.53;35.30
36304;BME280;22335;49.800;8.596;2023-03-18T20:26:43;100108.00;;;20.45;35.14
36304;BME280;22335;49.800;8.596;2023-03-18T20:33:27;100119.84;;;20.42;35.66
36304;BME280;22335;49.800;8.596;2023-03-18T20:40:20;100092.97;;;20.14;35.93
36304;BME280;22335;49.800;8.596;2023-03-18T20:47:06;100096.28;;;20.20;36.03
36304;BME280;22335;49.800;8.596;2023-03-18T20:53:49;100137.47;;;20.34;35.75
36304;BME280;22335;49.800;8.596;2023-03-18T21:00:33;100142.13;;;20.14;36.02
36304;BME280;22335;49.800;8.596;2023-03-18T21:07:18;100082.47;;;19.76;36.08
36304;BME280;22335;49.800;8.596;2023-03-18T21:14:02;100127.16;;;20.02;36.34
36304;BME280;22335;49.800;8.596;2023-03-18T21:20:46;100125.63;;;19.89;36.74
36304;BME280;22335;49.800;8.596;2023-03-18T21:27:30;100120.88;;;19.62;36.63
36304;BME280;22335;49.800;8.596;2023-03-18T21:34:14;100122.28;;;19.55;36.83
36304;BME280;22335;49.800;8.596;2023-03-18T21:40:59;100126.88;;;19.64;36.85
36304;BME280;22335;49.800;8.596;2023-03-18T21:47:44;100086.19;;;19.40;37.12
36304;BME280;22335;49.800;8.596;2023-03-18T21:54:27;100130.81;;;19.63;37.04
36304;BME280;22335;49.800;8.596;2023-03-18T22:01:15;100143.69;;;19.55;37.51
36304;BME280;22335;49.800;8.596;2023-03-18T22:08:01;100097.78;;;19.29;37.20
36304;BME280;22335;49.800;8.596;2023-03-18T22:14:45;100129.06;;;19.42;37.77
36304;BME280;22335;49.800;8.596;2023-03-18T22:21:28;100140.16;;;19.42;37.81
36304;BME280;22335;49.800;8.596;2023-03-18T22:28:16;100072.34;;;18.99;37.83
36304;BME280;22335;49.800;8.596;2023-03-18T22:35:04;100128.28;;;19.29;38.03
36304;BME280;22335;49.800;8.596;2023-03-18T22:41:51;100134.19;;;19.28;37.97
36304;BME280;22335;49.800;8.596;2023-03-18T22:48:37;100139.63;;;19.24;38.24
36304;BME280;22335;49.800;8.596;2023-03-18T22:55:22;100148.75;;;19.25;38.38
36304;BME280;22335;49.800;8.596;2023-03-18T23:02:13;100130.78;;;18.94;38.80
36304;BME280;22335;49.800;8.596;2023-03-18T23:09:00;100160.47;;;18.94;38.53
36304;BME280;22335;49.800;8.596;2023-03-18T23:15:44;100150.47;;;18.77;38.72
36304;BME280;22335;49.800;8.596;2023-03-18T23:22:30;100156.19;;;18.72;38.84
36304;BME280;22335;49.800;8.596;2023-03-18T23:29:16;100151.69;;;18.67;38.96
36304;BME280;22335;49.800;8.596;2023-03-18T23:35:59;100158.75;;;18.64;39.04
36304;BME280;22335;49.800;8.596;2023-03-18T23:42:44;100155.03;;;18.60;39.24
36304;BME280;22335;49.800;8.596;2023-03-18T23:49:29;100161.94;;;18.54;39.56
36304;BME280;22335;49.800;8.596;2023-03-18T23:56:14;100150.03;;;18.17;39.33
